createdAt,value
2022-09-20T00:00:19.832Z,9.93
2022-09-20T00:01:19.900Z,9.97
2022-09-20T00:02:19.821Z,10.00
2022-09-20T00:03:19.802Z,10.00
2022-09-20T00:04:19.811Z,10.01
2022-09-20T00:05:19.802Z,10.03
2022-09-20T00:06:19.771Z,10.04
2022-09-20T00:07:19.772Z,10.09
2022-09-20T00:08:19.760Z,10.09
2022-09-20T00:09:19.755Z,10.10
2022-09-20T00:10:19.735Z,10.12
2022-09-20T00:11:19.714Z,10.12
2022-09-20T00:12:19.714Z,10.14
2022-09-20T00:13:19.692Z,10.15
2022-09-20T00:14:19.712Z,10.15
2022-09-20T00:15:19.890Z,10.18
2022-09-20T00:16:19.707Z,10.21
2022-09-20T00:17:19.653Z,10.21
2022-09-20T00:18:19.645Z,10.24
2022-09-20T00:19:19.634Z,10.25
2022-09-20T00:20:19.652Z,10.26
2022-09-20T00:21:19.604Z,10.26
2022-09-20T00:22:19.622Z,10.28
2022-09-20T00:23:19.584Z,10.28
2022-09-20T00:24:19.604Z,10.28
2022-09-20T00:25:19.565Z,10.28
2022-09-20T00:26:19.555Z,10.30
2022-09-20T00:27:19.545Z,10.30
2022-09-20T00:28:19.542Z,10.28
2022-09-20T00:29:19.548Z,10.32
2022-09-20T00:30:19.517Z,10.28
2022-09-20T00:31:19.585Z,10.28
2022-09-20T00:32:19.545Z,10.28
2022-09-20T00:33:19.476Z,10.28
2022-09-20T00:34:19.511Z,10.28
2022-09-20T00:35:19.464Z,10.26
2022-09-20T00:36:19.452Z,10.25
2022-09-20T00:37:19.446Z,10.22
2022-09-20T00:38:19.432Z,10.22
2022-09-20T00:39:19.436Z,10.21
2022-09-20T00:40:19.437Z,10.19
2022-09-20T00:41:19.394Z,10.19
2022-09-20T00:42:19.417Z,10.19
2022-09-20T00:43:19.375Z,10.18
2022-09-20T00:44:19.387Z,10.18
2022-09-20T00:45:19.375Z,10.21
2022-09-20T00:46:19.388Z,10.19
2022-09-20T00:47:19.335Z,10.21
2022-09-20T00:48:19.328Z,10.21
2022-09-20T00:49:19.317Z,10.21
2022-09-20T00:50:19.328Z,10.21
2022-09-20T00:51:19.287Z,10.22
2022-09-20T00:52:19.287Z,10.24
2022-09-20T00:53:20.090Z,10.24
2022-09-20T00:54:20.529Z,10.25
2022-09-20T00:55:19.256Z,10.25
2022-09-20T00:56:19.238Z,10.24
2022-09-20T00:57:19.228Z,10.22
2022-09-20T00:58:19.218Z,10.19
2022-09-20T00:59:19.207Z,10.19
2022-09-20T01:00:20.044Z,10.21
2022-09-20T01:01:19.235Z,10.25
2022-09-20T01:02:19.257Z,10.25
2022-09-20T01:03:19.181Z,10.25
2022-09-20T01:04:19.157Z,10.24
2022-09-20T01:05:19.169Z,10.22
2022-09-20T01:06:19.134Z,10.19
2022-09-20T01:07:19.119Z,10.19
2022-09-20T01:08:19.119Z,10.19
2022-09-20T01:09:19.098Z,10.18
2022-09-20T01:10:19.088Z,10.17
2022-09-20T01:11:19.102Z,10.15
2022-09-20T01:12:19.081Z,10.12
2022-09-20T01:13:19.055Z,10.12
2022-09-20T01:14:19.058Z,10.10
2022-09-20T01:15:19.036Z,10.09
2022-09-20T01:16:19.074Z,10.04
2022-09-20T01:17:19.037Z,10.01
2022-09-20T01:18:19.009Z,10.00
2022-09-20T01:19:18.998Z,9.97
2022-09-20T01:20:18.979Z,9.96
2022-09-20T01:21:18.990Z,9.94
2022-09-20T01:22:18.988Z,9.91
2022-09-20T01:23:18.950Z,9.89
2022-09-20T01:24:18.939Z,9.93
2022-09-20T01:25:18.949Z,9.93
2022-09-20T01:26:18.919Z,9.91
2022-09-20T01:27:18.899Z,9.91
2022-09-20T01:28:18.897Z,9.91
2022-09-20T01:29:18.891Z,9.89
2022-09-20T01:30:18.880Z,9.88
2022-09-20T01:31:18.916Z,9.89
2022-09-20T01:32:18.869Z,9.89
2022-09-20T01:33:18.843Z,9.89
2022-09-20T01:34:18.839Z,9.89
2022-09-20T01:35:18.840Z,9.91
2022-09-20T01:36:18.821Z,9.93
2022-09-20T01:37:18.798Z,9.91
2022-09-20T01:38:18.797Z,9.91
2022-09-20T01:39:18.779Z,9.93
2022-09-20T01:40:18.820Z,9.94
2022-09-20T01:41:18.779Z,9.94
2022-09-20T01:42:18.760Z,9.96
2022-09-20T01:43:18.732Z,9.99
2022-09-20T01:44:18.730Z,9.99
2022-09-20T01:45:18.720Z,10.01
2022-09-20T01:46:18.789Z,10.01
2022-09-20T01:47:18.691Z,10.01
2022-09-20T01:48:18.680Z,10.01
2022-09-20T01:49:18.671Z,10.03
2022-09-20T01:50:18.661Z,10.04
2022-09-20T01:51:18.642Z,10.07
2022-09-20T01:52:18.673Z,10.06
2022-09-20T01:53:18.632Z,10.07
2022-09-20T01:54:18.620Z,10.06
2022-09-20T01:55:18.601Z,10.06
2022-09-20T01:56:18.623Z,10.04
2022-09-20T01:57:18.584Z,10.03
2022-09-20T01:58:18.572Z,10.03
2022-09-20T01:59:26.171Z,10.01
2022-09-20T02:00:19.563Z,10.01
2022-09-20T02:01:18.673Z,10.00
2022-09-20T02:02:18.607Z,9.97
2022-09-20T02:03:18.522Z,9.97
2022-09-20T02:04:18.514Z,9.96
2022-09-20T02:05:18.502Z,9.96
2022-09-20T02:06:18.519Z,9.94
2022-09-20T02:07:18.473Z,9.96
2022-09-20T02:08:18.471Z,9.96
2022-09-20T02:09:18.461Z,9.96
2022-09-20T02:10:18.452Z,9.99
2022-09-20T02:11:18.461Z,9.99
2022-09-20T02:12:18.643Z,9.97
2022-09-20T02:13:18.412Z,9.97
2022-09-20T02:14:18.403Z,9.97
2022-09-20T02:15:18.392Z,9.97
2022-09-20T02:16:18.463Z,9.96
2022-09-20T02:17:18.392Z,9.94
2022-09-20T02:18:18.377Z,9.94
2022-09-20T02:19:18.362Z,9.93
2022-09-20T02:20:18.351Z,9.89
2022-09-20T02:21:18.333Z,9.88
2022-09-20T02:22:18.335Z,9.88
2022-09-20T02:23:18.338Z,9.86
2022-09-20T02:24:18.302Z,9.85
2022-09-20T02:25:18.285Z,9.85
2022-09-20T02:26:18.282Z,9.85
2022-09-20T02:27:18.304Z,9.82
2022-09-20T02:28:18.263Z,9.82
2022-09-20T02:29:18.245Z,9.79
2022-09-20T02:30:18.256Z,9.78
2022-09-20T02:31:18.290Z,9.75
2022-09-20T02:32:18.225Z,9.73
2022-09-20T02:33:18.974Z,9.70
2022-09-20T02:34:18.202Z,9.70
2022-09-20T02:35:18.182Z,9.70
2022-09-20T02:36:18.182Z,9.70
2022-09-20T02:37:18.184Z,9.68
2022-09-20T02:38:18.167Z,9.67
2022-09-20T02:39:18.148Z,9.67
2022-09-20T02:40:18.187Z,9.67
2022-09-20T02:41:18.314Z,9.67
2022-09-20T02:42:18.127Z,9.64
2022-09-20T02:43:18.098Z,9.60
2022-09-20T02:44:18.086Z,9.58
2022-09-20T02:45:18.083Z,9.57
2022-09-20T02:46:18.184Z,9.58
2022-09-20T02:47:18.058Z,9.58
2022-09-20T02:48:18.055Z,9.57
2022-09-20T02:49:18.036Z,9.58
2022-09-20T02:50:18.026Z,9.56
2022-09-20T02:51:18.040Z,9.56
2022-09-20T02:52:18.037Z,9.56
2022-09-20T02:53:17.996Z,9.53
2022-09-20T02:54:17.996Z,9.53
2022-09-20T02:55:17.985Z,9.53
2022-09-20T02:56:17.995Z,9.52
2022-09-20T02:57:17.961Z,9.49
2022-09-20T02:58:17.957Z,9.50
2022-09-20T02:59:17.936Z,9.50
2022-09-20T03:00:17.926Z,9.50
2022-09-20T03:01:18.022Z,9.52
2022-09-20T03:02:17.963Z,9.49
2022-09-20T03:03:17.896Z,9.50
2022-09-20T03:04:17.881Z,9.50
2022-09-20T03:05:17.857Z,9.49
2022-09-20T03:06:17.889Z,9.50
2022-09-20T03:07:17.856Z,9.49
2022-09-20T03:08:17.835Z,9.46
2022-09-20T03:09:17.825Z,9.46
2022-09-20T03:10:17.808Z,9.46
2022-09-20T03:11:17.838Z,9.46
2022-09-20T03:12:17.808Z,9.45
2022-09-20T03:13:17.796Z,9.48
2022-09-20T03:14:17.768Z,9.48
2022-09-20T03:15:17.781Z,9.46
2022-09-20T03:16:17.800Z,9.45
2022-09-20T03:17:17.757Z,9.43
2022-09-20T03:18:17.730Z,9.43
2022-09-20T03:19:17.719Z,9.43
2022-09-20T03:20:17.709Z,9.42
2022-09-20T03:21:17.718Z,9.40
2022-09-20T03:22:17.721Z,9.39
2022-09-20T03:23:17.679Z,9.39
2022-09-20T03:24:17.670Z,9.40
2022-09-20T03:25:17.691Z,9.38
2022-09-20T03:26:17.643Z,9.35
2022-09-20T03:27:17.649Z,9.34
2022-09-20T03:28:17.631Z,9.32
2022-09-20T03:29:17.620Z,9.31
2022-09-20T03:30:17.618Z,9.31
2022-09-20T03:31:17.593Z,9.30
2022-09-20T03:32:17.652Z,9.28
2022-09-20T03:33:17.569Z,9.25
2022-09-20T03:34:17.559Z,9.23
2022-09-20T03:35:17.557Z,9.20
2022-09-20T03:36:17.539Z,9.16
2022-09-20T03:37:17.559Z,9.15
2022-09-20T03:38:17.531Z,9.15
2022-09-20T03:39:17.511Z,9.12
2022-09-20T03:40:17.514Z,9.12
2022-09-20T03:41:17.491Z,9.10
2022-09-20T03:42:17.519Z,9.10
2022-09-20T03:43:17.470Z,9.06
2022-09-20T03:44:17.474Z,9.05
2022-09-20T03:45:17.468Z,9.05
2022-09-20T03:46:17.501Z,9.04
2022-09-20T03:47:17.448Z,8.99
2022-09-20T03:48:17.427Z,8.99
2022-09-20T03:49:17.405Z,8.97
2022-09-20T03:50:17.391Z,8.99
2022-09-20T03:51:17.380Z,8.99
2022-09-20T03:52:17.389Z,8.99
2022-09-20T03:53:17.381Z,8.93
2022-09-20T03:54:17.340Z,8.91
2022-09-20T03:55:17.371Z,8.90
2022-09-20T03:56:17.333Z,8.90
2022-09-20T03:57:17.355Z,8.90
2022-09-20T03:58:17.301Z,8.87
2022-09-20T03:59:17.292Z,8.86
2022-09-20T04:00:17.277Z,8.84
2022-09-20T04:01:17.315Z,8.83
2022-09-20T04:02:17.330Z,8.79
2022-09-20T04:03:17.250Z,8.78
2022-09-20T04:04:17.229Z,8.78
2022-09-20T04:05:17.232Z,8.75
2022-09-20T04:06:17.213Z,8.75
2022-09-20T04:07:17.240Z,8.72
2022-09-20T04:08:17.192Z,8.69
2022-09-20T04:09:17.179Z,8.66
2022-09-20T04:10:17.170Z,8.65
2022-09-20T04:11:17.168Z,8.62
2022-09-20T04:12:17.182Z,8.58
2022-09-20T04:13:17.158Z,8.53
2022-09-20T04:14:17.124Z,8.47
2022-09-20T04:15:17.122Z,8.42
2022-09-20T04:16:17.127Z,8.36
2022-09-20T04:17:17.102Z,8.32
2022-09-20T04:18:17.111Z,8.26
2022-09-20T04:19:17.069Z,8.26
2022-09-20T04:20:17.062Z,8.26
2022-09-20T04:21:17.042Z,8.30
2022-09-20T04:22:17.051Z,8.29
2022-09-20T04:23:17.053Z,8.29
2022-09-20T04:24:17.029Z,8.25
2022-09-20T04:25:17.002Z,8.21
2022-09-20T04:26:16.993Z,8.17
2022-09-20T04:27:16.984Z,8.12
2022-09-20T04:28:17.011Z,8.10
2022-09-20T04:29:16.963Z,8.04
2022-09-20T04:30:16.965Z,8.08
2022-09-20T04:31:20.095Z,8.15
2022-09-20T04:32:16.999Z,8.17
2022-09-20T04:33:16.941Z,8.17
2022-09-20T04:34:16.910Z,8.14
2022-09-20T04:35:16.902Z,8.14
2022-09-20T04:36:16.893Z,8.12
2022-09-20T04:37:16.880Z,8.11
2022-09-20T04:38:16.893Z,8.08
2022-09-20T04:39:16.873Z,8.07
2022-09-20T04:40:16.923Z,8.03
2022-09-20T04:41:16.825Z,8.03
2022-09-20T04:42:16.832Z,8.02
2022-09-20T04:43:16.824Z,8.00
2022-09-20T04:44:16.824Z,8.00
2022-09-20T04:45:16.790Z,8.00
2022-09-20T04:46:16.874Z,7.97
2022-09-20T04:47:16.773Z,7.94
2022-09-20T04:48:16.754Z,7.90
2022-09-20T04:49:16.742Z,7.90
2022-09-20T04:50:16.753Z,7.92
2022-09-20T04:51:16.725Z,7.93
2022-09-20T04:52:16.724Z,7.94
2022-09-20T04:53:16.693Z,7.92
2022-09-20T04:54:16.714Z,7.90
2022-09-20T04:55:16.675Z,7.90
2022-09-20T04:56:16.685Z,7.92
2022-09-20T04:57:16.654Z,7.93
2022-09-20T04:58:16.643Z,7.94
2022-09-20T04:59:16.636Z,7.94
2022-09-20T05:00:16.622Z,7.92
2022-09-20T05:01:16.951Z,7.96
2022-09-20T05:02:16.654Z,7.99
2022-09-20T05:03:16.595Z,8.03
2022-09-20T05:04:16.575Z,8.03
2022-09-20T05:05:16.567Z,8.00
2022-09-20T05:06:16.556Z,7.99
2022-09-20T05:07:16.563Z,7.99
2022-09-20T05:08:16.537Z,7.96
2022-09-20T05:09:16.522Z,7.99
2022-09-20T05:10:16.518Z,7.99
2022-09-20T05:11:16.525Z,7.99
2022-09-20T05:12:16.507Z,7.97
2022-09-20T05:13:16.483Z,8.03
2022-09-20T05:14:16.475Z,8.04
2022-09-20T05:15:16.455Z,8.08
2022-09-20T05:16:16.500Z,8.07
2022-09-20T05:17:16.464Z,8.10
2022-09-20T05:18:16.424Z,8.07
2022-09-20T05:19:16.415Z,8.08
2022-09-20T05:20:16.404Z,8.08
2022-09-20T05:21:16.386Z,8.10
2022-09-20T05:22:16.414Z,8.08
2022-09-20T05:23:16.365Z,8.07
2022-09-20T05:24:16.616Z,8.08
2022-09-20T05:25:16.344Z,8.07
2022-09-20T05:26:16.343Z,8.11
2022-09-20T05:27:16.328Z,8.12
2022-09-20T05:28:16.336Z,8.11
2022-09-20T05:29:16.324Z,8.08
2022-09-20T05:30:16.292Z,8.11
2022-09-20T05:31:16.276Z,8.11
2022-09-20T05:32:16.293Z,8.11
2022-09-20T05:33:16.255Z,8.14
2022-09-20T05:34:16.247Z,8.18
2022-09-20T05:35:16.265Z,8.20
2022-09-20T05:36:16.227Z,8.20
2022-09-20T05:37:16.215Z,8.20
2022-09-20T05:38:16.256Z,8.20
2022-09-20T05:39:16.198Z,8.18
2022-09-20T05:40:16.245Z,8.15
2022-09-20T05:41:16.186Z,8.17
2022-09-20T05:42:16.178Z,8.17
2022-09-20T05:43:16.145Z,8.21
2022-09-20T05:44:16.166Z,8.22
2022-09-20T05:45:16.124Z,8.25
2022-09-20T05:46:16.114Z,8.25
2022-09-20T05:47:16.108Z,8.26
2022-09-20T05:48:16.095Z,8.25
2022-09-20T05:49:16.105Z,8.28
2022-09-20T05:50:16.077Z,8.26
2022-09-20T05:51:16.058Z,8.26
2022-09-20T05:52:23.135Z,8.28
2022-09-20T05:53:16.047Z,8.30
2022-09-20T05:54:16.028Z,8.35
2022-09-20T05:55:16.022Z,8.36
2022-09-20T05:56:16.015Z,8.37
2022-09-20T05:57:16.021Z,8.39
2022-09-20T05:58:15.988Z,8.44
2022-09-20T05:59:16.013Z,8.47
2022-09-20T06:00:15.960Z,8.50
2022-09-20T06:01:15.998Z,8.50
2022-09-20T06:02:16.012Z,8.54
2022-09-20T06:03:15.928Z,8.57
2022-09-20T06:04:15.920Z,8.58
2022-09-20T06:05:15.909Z,8.66
2022-09-20T06:06:15.908Z,8.71
2022-09-20T06:07:15.907Z,8.76
2022-09-20T06:08:15.880Z,8.83
2022-09-20T06:09:15.867Z,8.87
2022-09-20T06:10:15.860Z,8.90
2022-09-20T06:11:15.846Z,8.94
2022-09-20T06:12:15.867Z,9.01
2022-09-20T06:13:15.819Z,9.05
2022-09-20T06:14:15.811Z,9.10
2022-09-20T06:15:15.803Z,9.15
2022-09-20T06:16:15.834Z,9.18
2022-09-20T06:17:15.799Z,9.21
2022-09-20T06:18:15.798Z,9.28
2022-09-20T06:19:16.588Z,9.28
2022-09-20T06:20:15.759Z,9.31
2022-09-20T06:21:15.760Z,9.32
2022-09-20T06:22:15.754Z,9.39
2022-09-20T06:23:15.720Z,9.42
2022-09-20T06:24:15.741Z,9.45
2022-09-20T06:25:15.689Z,9.50
2022-09-20T06:26:15.690Z,9.50
2022-09-20T06:27:15.671Z,9.52
2022-09-20T06:28:15.701Z,9.52
2022-09-20T06:29:15.652Z,9.56
2022-09-20T06:30:15.641Z,9.53
2022-09-20T06:31:15.719Z,9.57
2022-09-20T06:32:15.632Z,9.57
2022-09-20T06:33:15.640Z,9.58
2022-09-20T06:34:15.609Z,9.58
2022-09-20T06:35:15.591Z,9.57
2022-09-20T06:36:15.581Z,9.57
2022-09-20T06:37:15.570Z,9.57
2022-09-20T06:38:15.580Z,9.61
2022-09-20T06:39:15.569Z,9.63
2022-09-20T06:40:15.565Z,9.66
2022-09-20T06:41:15.533Z,9.68
2022-09-20T06:42:15.532Z,9.68
2022-09-20T06:43:15.530Z,9.75
2022-09-20T06:44:15.492Z,9.76
2022-09-20T06:45:15.481Z,9.79
2022-09-20T06:46:15.518Z,9.81
2022-09-20T06:47:15.462Z,9.81
2022-09-20T06:48:15.480Z,9.79
2022-09-20T06:49:15.442Z,9.85
2022-09-20T06:50:15.422Z,9.88
2022-09-20T06:51:15.413Z,9.88
2022-09-20T06:52:15.426Z,9.94
2022-09-20T06:53:15.412Z,9.93
2022-09-20T06:54:15.383Z,9.96
2022-09-20T06:55:15.384Z,9.97
2022-09-20T06:56:15.364Z,10.00
2022-09-20T06:57:15.353Z,10.01
2022-09-20T06:58:15.363Z,10.06
2022-09-20T06:59:15.332Z,10.10
2022-09-20T07:00:15.322Z,10.17
2022-09-20T07:01:26.444Z,10.25
2022-09-20T07:02:16.354Z,10.30
2022-09-20T07:03:15.313Z,10.34
2022-09-20T07:04:15.282Z,10.40
2022-09-20T07:05:15.266Z,10.44
2022-09-20T07:06:15.256Z,10.52
2022-09-20T07:07:15.242Z,10.58
2022-09-20T07:08:15.242Z,10.62
2022-09-20T07:09:15.250Z,10.68
2022-09-20T07:10:15.225Z,10.74
2022-09-20T07:11:15.665Z,10.77
2022-09-20T07:12:15.276Z,10.80
2022-09-20T07:13:15.221Z,10.78
2022-09-20T07:14:15.213Z,10.81
2022-09-20T07:15:15.164Z,10.89
2022-09-20T07:16:15.226Z,10.92
2022-09-20T07:17:15.133Z,10.96
2022-09-20T07:18:15.150Z,11.03
2022-09-20T07:19:15.146Z,11.07
2022-09-20T07:20:17.443Z,11.13
2022-09-20T07:21:16.085Z,11.19
2022-09-20T07:22:15.186Z,11.20
2022-09-20T07:23:15.074Z,11.21
2022-09-20T07:24:15.091Z,11.21
2022-09-20T07:25:15.161Z,11.21
2022-09-20T07:26:15.076Z,11.19
2022-09-20T07:27:15.039Z,11.21
2022-09-20T07:28:15.024Z,11.21
2022-09-20T07:29:15.014Z,11.24
2022-09-20T07:30:15.008Z,11.24
2022-09-20T07:31:15.058Z,11.21
2022-09-20T07:32:15.072Z,11.20
2022-09-20T07:33:14.985Z,11.21
2022-09-20T07:34:14.966Z,11.19
2022-09-20T07:35:14.935Z,11.20
2022-09-20T07:36:14.995Z,11.24
2022-09-20T07:37:14.935Z,11.31
2022-09-20T07:38:14.906Z,11.34
2022-09-20T07:39:14.886Z,11.38
2022-09-20T07:40:14.975Z,11.44
2022-09-20T07:41:14.869Z,11.50
2022-09-20T07:42:14.897Z,11.57
2022-09-20T07:43:14.846Z,11.64
2022-09-20T07:44:14.837Z,11.68
2022-09-20T07:45:14.858Z,11.72
2022-09-20T07:46:14.849Z,11.77
2022-09-20T07:47:14.797Z,11.83
2022-09-20T07:48:14.796Z,11.89
2022-09-20T07:49:14.776Z,11.99
2022-09-20T07:50:14.788Z,12.05
2022-09-20T07:51:14.758Z,12.12
2022-09-20T07:52:14.751Z,12.21
2022-09-20T07:53:14.728Z,12.29
2022-09-20T07:54:14.730Z,12.33
2022-09-20T07:55:14.730Z,12.39
2022-09-20T07:56:14.726Z,12.45
2022-09-20T07:57:14.688Z,12.52
2022-09-20T07:58:14.699Z,12.51
2022-09-20T07:59:14.674Z,12.57
2022-09-20T08:00:14.681Z,12.62
2022-09-20T08:01:14.698Z,12.69
2022-09-20T08:02:14.683Z,12.71
2022-09-20T08:03:14.677Z,12.78
2022-09-20T08:04:14.653Z,12.82
2022-09-20T08:05:14.625Z,12.88
2022-09-20T08:06:14.634Z,12.92
2022-09-20T08:07:14.604Z,12.95
2022-09-20T08:08:14.618Z,13.02
2022-09-20T08:09:14.624Z,13.06
2022-09-20T08:10:14.582Z,13.11
2022-09-20T08:11:14.599Z,13.15
2022-09-20T08:14:15.590Z,13.20
2022-09-20T08:15:14.542Z,13.25
2022-09-20T08:16:14.570Z,13.30
2022-09-20T08:17:14.479Z,13.40
2022-09-20T08:18:14.488Z,13.40
2022-09-20T08:19:14.442Z,13.40
2022-09-20T08:20:14.453Z,13.51
2022-09-20T08:21:14.425Z,13.62
2022-09-20T08:22:14.409Z,13.76
2022-09-20T08:23:23.551Z,13.84
2022-09-20T08:24:15.398Z,13.94
2022-09-20T08:25:14.400Z,14.04
2022-09-20T08:26:14.372Z,14.14
2022-09-20T08:27:14.363Z,14.14
2022-09-20T08:28:14.352Z,14.17
2022-09-20T08:29:14.333Z,14.20
2022-09-20T08:30:14.352Z,14.14
2022-09-20T08:31:14.375Z,14.04
2022-09-20T08:32:14.352Z,14.02
2022-09-20T08:33:14.299Z,14.12
2022-09-20T08:34:14.292Z,14.17
2022-09-20T08:35:14.271Z,14.21
2022-09-20T08:36:14.253Z,14.24
2022-09-20T08:37:14.253Z,14.24
2022-09-20T08:40:15.254Z,14.49
2022-09-20T08:41:14.232Z,14.49
2022-09-20T08:42:14.197Z,14.52
2022-09-20T08:43:14.183Z,14.50
2022-09-20T08:44:14.172Z,14.50
2022-09-20T08:45:22.317Z,14.56
2022-09-20T08:46:15.215Z,14.56
2022-09-20T08:47:14.143Z,14.54
2022-09-20T08:48:14.407Z,14.57
2022-09-20T08:49:14.143Z,14.67
2022-09-20T08:50:17.571Z,14.67
2022-09-20T08:51:14.094Z,14.81
2022-09-20T08:52:14.085Z,14.86
2022-09-20T08:53:14.091Z,14.81
2022-09-20T08:54:14.062Z,14.78
2022-09-20T08:55:14.074Z,14.88
2022-09-20T08:56:14.034Z,14.98
2022-09-20T08:57:14.084Z,15.11
2022-09-20T08:58:14.024Z,15.23
2022-09-20T08:59:14.017Z,15.31
2022-09-20T09:00:14.005Z,15.43
2022-09-20T09:01:14.083Z,15.61
2022-09-20T09:02:14.078Z,15.74
2022-09-20T09:03:13.985Z,15.76
2022-09-20T09:04:13.947Z,15.94
2022-09-20T09:05:13.968Z,16.09
2022-09-20T09:06:18.232Z,16.31
2022-09-20T09:07:13.926Z,16.50
2022-09-20T09:08:13.906Z,16.65
2022-09-20T09:09:13.917Z,16.48
2022-09-20T09:10:13.911Z,16.30
2022-09-20T09:11:13.878Z,16.18
2022-09-20T09:12:13.867Z,16.31
2022-09-20T09:13:13.868Z,16.35
2022-09-20T09:14:13.866Z,16.48
2022-09-20T09:15:17.647Z,16.49
2022-09-20T09:16:13.855Z,16.40
2022-09-20T09:17:13.902Z,16.42
2022-09-20T09:18:13.798Z,16.52
2022-09-20T09:19:13.788Z,16.49
2022-09-20T09:20:13.779Z,16.60
2022-09-20T09:21:13.801Z,16.49
2022-09-20T09:22:13.780Z,16.42
2022-09-20T09:23:13.750Z,16.53
2022-09-20T09:24:13.739Z,16.53
2022-09-20T09:25:13.729Z,16.58
2022-09-20T09:26:13.711Z,16.49
2022-09-20T09:27:13.720Z,16.22
2022-09-20T09:28:13.713Z,16.12
2022-09-20T09:29:13.680Z,16.00
2022-09-20T09:30:13.668Z,15.82
2022-09-20T09:31:13.694Z,15.59
2022-09-20T09:32:13.650Z,15.46
2022-09-20T09:33:13.631Z,15.19
2022-09-20T09:34:13.633Z,15.02
2022-09-20T09:35:13.612Z,14.99
2022-09-20T09:36:13.651Z,14.88
2022-09-20T09:37:13.592Z,14.86
2022-09-20T09:38:13.609Z,14.81
2022-09-20T09:39:13.571Z,14.78
2022-09-20T09:40:13.601Z,14.69
2022-09-20T09:41:13.575Z,14.56
2022-09-20T09:42:13.542Z,14.60
2022-09-20T09:43:13.532Z,14.53
2022-09-20T09:44:13.512Z,14.68
2022-09-20T09:45:13.502Z,14.68
2022-09-20T09:46:13.577Z,14.84
2022-09-20T09:47:13.482Z,15.39
2022-09-20T09:48:13.467Z,16.35
2022-09-20T09:49:13.614Z,17.15
2022-09-20T09:50:13.445Z,17.82
2022-09-20T09:51:13.455Z,18.03
2022-09-20T09:52:13.427Z,18.24
2022-09-20T09:53:13.419Z,18.59
2022-09-20T09:54:13.406Z,18.87
2022-09-20T09:55:13.394Z,19.42
2022-09-20T09:56:14.272Z,19.51
2022-09-20T09:57:13.374Z,19.83
2022-09-20T09:58:13.358Z,20.08
2022-09-20T09:59:13.395Z,19.83
2022-09-20T10:00:19.315Z,19.48
2022-09-20T10:01:14.377Z,18.34
2022-09-20T10:02:13.381Z,18.10
2022-09-20T10:03:13.307Z,18.50
2022-09-20T10:04:13.287Z,18.40
2022-09-20T10:05:13.289Z,18.29
2022-09-20T10:06:13.266Z,18.25
2022-09-20T10:07:13.301Z,18.09
2022-09-20T10:08:13.247Z,17.51
2022-09-20T10:09:13.245Z,17.26
2022-09-20T10:10:13.230Z,16.99
2022-09-20T10:11:13.221Z,17.03
2022-09-20T10:12:13.228Z,17.15
2022-09-20T10:13:13.198Z,17.13
2022-09-20T10:14:13.181Z,16.88
2022-09-20T10:15:13.179Z,16.85
2022-09-20T10:16:13.219Z,16.85
2022-09-20T10:17:13.179Z,16.95
2022-09-20T10:18:13.142Z,16.98
2022-09-20T10:19:13.131Z,16.96
2022-09-20T10:20:13.148Z,17.13
2022-09-20T10:21:13.111Z,17.11
2022-09-20T10:22:13.092Z,17.18
2022-09-20T10:24:14.072Z,16.95
2022-09-20T10:25:13.063Z,16.88
2022-09-20T10:26:13.061Z,16.83
2022-09-20T10:27:13.051Z,17.57
2022-09-20T10:28:13.051Z,17.26
2022-09-20T10:29:13.061Z,16.88
2022-09-20T10:30:13.165Z,16.42
2022-09-20T10:31:13.068Z,16.18
2022-09-20T10:32:15.059Z,16.15
2022-09-20T10:33:12.974Z,15.92
2022-09-20T10:34:12.976Z,15.72
2022-09-20T10:35:12.973Z,15.66
2022-09-20T10:36:12.954Z,15.61
2022-09-20T10:37:12.935Z,15.59
2022-09-20T10:38:12.924Z,15.46
2022-09-20T10:39:12.935Z,15.33
2022-09-20T10:40:13.067Z,15.28
2022-09-20T10:41:12.895Z,15.27
2022-09-20T10:42:12.875Z,16.04
2022-09-20T10:43:12.874Z,17.47
2022-09-20T10:44:12.869Z,18.47
2022-09-20T10:45:24.401Z,19.76
2022-09-20T10:46:31.426Z,20.47
2022-09-20T10:47:13.869Z,21.38
2022-09-20T10:48:12.814Z,22.14
2022-09-20T10:49:12.827Z,22.07
2022-09-20T10:50:12.834Z,21.72
2022-09-20T10:51:12.786Z,22.37
2022-09-20T10:52:12.768Z,22.90
2022-09-20T10:53:12.756Z,23.20
2022-09-20T10:54:12.767Z,23.45
2022-09-20T10:55:12.738Z,23.20
2022-09-20T10:56:12.728Z,23.24
2022-09-20T10:57:12.720Z,23.15
2022-09-20T10:58:12.698Z,23.62
2022-09-20T10:59:12.720Z,24.14
2022-09-20T11:00:12.734Z,24.29
2022-09-20T11:01:12.779Z,24.35
2022-09-20T11:02:12.690Z,24.27
2022-09-20T11:03:12.660Z,23.47
2022-09-20T11:04:12.639Z,23.38
2022-09-20T11:05:12.632Z,22.31
2022-09-20T11:06:12.642Z,20.95
2022-09-20T11:07:12.614Z,19.47
2022-09-20T11:08:12.600Z,18.77
2022-09-20T11:09:14.171Z,18.12
2022-09-20T11:10:12.572Z,17.57
2022-09-20T11:11:12.565Z,18.79
2022-09-20T11:12:12.573Z,20.42
2022-09-20T11:13:12.553Z,21.34
2022-09-20T11:14:12.533Z,21.83
2022-09-20T11:15:12.524Z,22.02
2022-09-20T11:16:12.562Z,22.28
2022-09-20T11:17:12.504Z,22.19
2022-09-20T11:18:12.496Z,22.64
2022-09-20T11:19:12.476Z,22.75
2022-09-20T11:20:12.466Z,23.04
2022-09-20T11:21:12.462Z,23.12
2022-09-20T11:22:12.467Z,22.92
2022-09-20T11:23:12.444Z,22.47
2022-09-20T11:24:12.428Z,22.67
2022-09-20T11:25:14.796Z,22.38
2022-09-20T11:26:12.407Z,22.94
2022-09-20T11:27:12.417Z,22.97
2022-09-20T11:28:12.379Z,22.86
2022-09-20T11:29:12.372Z,23.15
2022-09-20T11:30:12.361Z,22.86
2022-09-20T11:31:12.350Z,22.02
2022-09-20T11:32:13.877Z,21.06
2022-09-20T11:33:12.328Z,20.50
2022-09-20T11:34:12.311Z,19.97
2022-09-20T11:35:12.313Z,19.57
2022-09-20T11:36:12.300Z,19.47
2022-09-20T11:37:12.308Z,18.74
2022-09-20T11:38:12.271Z,18.50
2022-09-20T11:39:12.270Z,19.75
2022-09-20T11:40:12.305Z,20.59
2022-09-20T11:41:12.244Z,21.32
2022-09-20T11:42:12.253Z,20.87
2022-09-20T11:43:12.222Z,21.81
2022-09-20T11:44:12.212Z,22.35
2022-09-20T11:45:12.195Z,22.96
2022-09-20T11:46:12.238Z,22.83
2022-09-20T11:47:12.180Z,23.52
2022-09-20T11:48:12.186Z,23.86
2022-09-20T11:49:12.156Z,24.07
2022-09-20T11:50:12.147Z,23.76
2022-09-20T11:51:12.136Z,24.01
2022-09-20T11:52:12.146Z,24.04
2022-09-20T11:53:19.927Z,23.42
2022-09-20T11:54:12.126Z,24.10
2022-09-20T11:55:12.095Z,24.38
2022-09-20T11:56:12.875Z,24.47
2022-09-20T11:57:12.128Z,23.87
2022-09-20T11:58:12.084Z,23.80
2022-09-20T11:59:12.077Z,23.42
2022-09-20T12:00:12.050Z,23.95
2022-09-20T12:01:12.053Z,24.67
2022-09-20T12:02:12.185Z,25.34
2022-09-20T12:03:12.110Z,24.69
2022-09-20T12:04:31.647Z,25.52
2022-09-20T12:05:13.012Z,26.01
2022-09-20T12:06:11.997Z,25.30
2022-09-20T12:07:16.986Z,25.00
2022-09-20T12:08:12.960Z,23.26
2022-09-20T12:09:11.951Z,22.57
2022-09-20T12:10:11.970Z,22.41
2022-09-20T12:11:11.922Z,23.79
2022-09-20T12:12:11.911Z,24.82
2022-09-20T12:13:11.906Z,25.84
2022-09-20T12:14:11.944Z,25.28
2022-09-20T12:15:11.896Z,24.56
2022-09-20T12:16:11.904Z,23.35
2022-09-20T12:17:11.875Z,22.74
2022-09-20T12:18:11.863Z,21.24
2022-09-20T12:19:11.885Z,21.24
2022-09-20T12:20:11.846Z,21.36
2022-09-20T12:21:19.070Z,21.27
2022-09-20T12:22:12.800Z,20.34
2022-09-20T12:23:11.797Z,20.30
2022-09-20T12:24:11.786Z,21.63
2022-09-20T12:25:11.809Z,22.46
2022-09-20T12:26:11.758Z,23.45
2022-09-20T12:27:11.758Z,24.16
2022-09-20T12:28:11.757Z,25.07
2022-09-20T12:29:11.728Z,25.84
2022-09-20T12:30:11.737Z,26.44
2022-09-20T12:31:11.708Z,26.28
2022-09-20T12:32:11.697Z,25.83
2022-09-20T12:33:11.692Z,25.00
2022-09-20T12:34:11.671Z,24.24
2022-09-20T12:35:11.691Z,24.56
2022-09-20T12:36:11.650Z,23.61
2022-09-20T12:37:11.642Z,24.08
2022-09-20T12:38:11.688Z,24.27
2022-09-20T12:39:11.635Z,24.32
2022-09-20T12:40:11.655Z,23.95
2022-09-20T12:41:11.623Z,23.83
2022-09-20T12:42:11.621Z,23.79
2022-09-20T12:43:11.580Z,23.64
2022-09-20T12:44:11.565Z,23.61
2022-09-20T12:45:11.575Z,23.53
2022-09-20T12:46:12.324Z,23.05
2022-09-20T12:47:11.545Z,22.75
2022-09-20T12:48:11.527Z,23.02
2022-09-20T12:49:11.520Z,23.45
2022-09-20T12:50:11.506Z,23.71
2022-09-20T12:51:11.545Z,24.69
2022-09-20T12:52:11.489Z,24.67
2022-09-20T12:53:11.478Z,24.60
2022-09-20T12:54:11.468Z,25.05
2022-09-20T12:55:11.463Z,25.38
2022-09-20T12:56:11.467Z,24.23
2022-09-20T12:57:11.427Z,23.02
2022-09-20T12:58:11.419Z,22.19
2022-09-20T12:59:11.410Z,21.38
2022-09-20T13:00:11.398Z,20.42
2022-09-20T13:01:14.382Z,19.70
2022-09-20T13:02:11.405Z,19.24
2022-09-20T13:03:11.370Z,18.84
2022-09-20T13:04:11.357Z,18.84
2022-09-20T13:05:11.347Z,18.79
2022-09-20T13:06:11.337Z,18.91
2022-09-20T13:07:11.368Z,19.02
2022-09-20T13:08:11.328Z,18.95